Jevne, Minnesota
Current Conditions -  °F | °C
As of 11:47 AM on Saturday 20 Dec 2014 (Local Time) from KHZX Reporting Station
Overcast Overcast  
Wind Chill: -5°   Ceiling: 500
Heat Index: -1°   Visibility: 2mi
Dew Point: -1°   Wind: 8mph
Humidity: 100%   Direction: 180°S
Pressure: 30.08"   Gusts: NA
Location:  46.7232°N, 93.3159°W
Report Text: KHZX 201747Z AUTO 18007KT 2SM OVC005 M01/M01 A3008 RMK AO2
Loading
Personal Weather Stations






























Interactive Weather Map New forecast layout! Learn more

10-Day Weather Forecast

Advertisements
Track Severe Weather on mobile